sensor_id;sensor_type;location;lat;lon;timestamp;temperature;humidity
10155;DHT22;5118;48.570;7.916;2023-04-30T00:02:38;12.50;99.90
10155;DHT22;5118;48.570;7.916;2023-04-30T00:05:08;12.50;99.90
10155;DHT22;5118;48.570;7.916;2023-04-30T00:07:36;12.50;99.90
10155;DHT22;5118;48.570;7.916;2023-04-30T00:10:09;12.40;99.90
10155;DHT22;5118;48.570;7.916;2023-04-30T00:12:38;12.40;99.90
10155;DHT22;5118;48.570;7.916;2023-04-30T00:15:07;12.40;99.90
10155;DHT22;5118;48.570;7.916;2023-04-30T00:17:35;12.40;99.90
10155;DHT22;5118;48.570;7.916;2023-04-30T00:20:06;12.40;99.90
10155;DHT22;5118;48.570;7.916;2023-04-30T00:22:35;12.40;99.90
10155;DHT22;5118;48.570;7.916;2023-04-30T00:25:04;12.40;99.90
10155;DHT22;5118;48.570;7.916;2023-04-30T00:27:32;12.40;99.90
10155;DHT22;5118;48.570;7.916;2023-04-30T00:30:01;12.40;99.90
10155;DHT22;5118;48.570;7.916;2023-04-30T00:32:30;12.40;99.90
10155;DHT22;5118;48.570;7.916;2023-04-30T00:34:59;12.40;99.90
10155;DHT22;5118;48.570;7.916;2023-04-30T00:37:29;12.40;99.90
10155;DHT22;5118;48.570;7.916;2023-04-30T00:39:58;12.40;99.90
10155;DHT22;5118;48.570;7.916;2023-04-30T00:42:26;12.40;99.90
10155;DHT22;5118;48.570;7.916;2023-04-30T00:44:54;12.40;99.90
10155;DHT22;5118;48.570;7.916;2023-04-30T00:47:23;12.40;99.90
10155;DHT22;5118;48.570;7.916;2023-04-30T00:49:52;12.40;99.90
10155;DHT22;5118;48.570;7.916;2023-04-30T00:52:21;12.40;99.90
10155;DHT22;5118;48.570;7.916;2023-04-30T00:54:50;12.40;99.90
10155;DHT22;5118;48.570;7.916;2023-04-30T00:57:20;12.40;99.90
10155;DHT22;5118;48.570;7.916;2023-04-30T00:59:49;12.40;99.90
10155;DHT22;5118;48.570;7.916;2023-04-30T01:02:18;12.40;99.90
10155;DHT22;5118;48.570;7.916;2023-04-30T01:04:47;12.40;99.90
10155;DHT22;5118;48.570;7.916;2023-04-30T01:07:17;12.40;99.90
10155;DHT22;5118;48.570;7.916;2023-04-30T01:09:46;12.40;99.90
10155;DHT22;5118;48.570;7.916;2023-04-30T01:12:20;12.40;99.90
10155;DHT22;5118;48.570;7.916;2023-04-30T01:14:55;12.40;99.90
10155;DHT22;5118;48.570;7.916;2023-04-30T01:17:32;12.30;99.90
10155;DHT22;5118;48.570;7.916;2023-04-30T01:20:02;12.30;99.90
10155;DHT22;5118;48.570;7.916;2023-04-30T01:22:38;12.30;99.90
10155;DHT22;5118;48.570;7.916;2023-04-30T01:25:30;12.30;99.90
10155;DHT22;5118;48.570;7.916;2023-04-30T01:28:04;12.30;99.90
10155;DHT22;5118;48.570;7.916;2023-04-30T01:30:35;12.20;99.90
10155;DHT22;5118;48.570;7.916;2023-04-30T01:33:03;12.20;99.90
10155;DHT22;5118;48.570;7.916;2023-04-30T01:38:49;12.10;99.90
10155;DHT22;5118;48.570;7.916;2023-04-30T01:41:29;12.10;99.90
10155;DHT22;5118;48.570;7.916;2023-04-30T01:44:16;12.10;99.90
10155;DHT22;5118;48.570;7.916;2023-04-30T01:46:52;12.00;99.90
10155;DHT22;5118;48.570;7.916;2023-04-30T01:52:18;12.00;99.90
10155;DHT22;5118;48.570;7.916;2023-04-30T01:54:51;12.00;99.90
10155;DHT22;5118;48.570;7.916;2023-04-30T01:57:32;12.00;99.90
10155;DHT22;5118;48.570;7.916;2023-04-30T02:00:04;12.00;99.90
10155;DHT22;5118;48.570;7.916;2023-04-30T02:02:39;12.00;99.90
10155;DHT22;5118;48.570;7.916;2023-04-30T02:05:08;12.00;99.90
10155;DHT22;5118;48.570;7.916;2023-04-30T02:07:55;12.00;99.90
10155;DHT22;5118;48.570;7.916;2023-04-30T02:10:24;12.00;99.90
10155;DHT22;5118;48.570;7.916;2023-04-30T02:12:53;12.00;99.90
10155;DHT22;5118;48.570;7.916;2023-04-30T02:15:23;12.00;99.90
10155;DHT22;5118;48.570;7.916;2023-04-30T02:17:51;11.90;99.90
10155;DHT22;5118;48.570;7.916;2023-04-30T02:20:20;11.90;99.90
10155;DHT22;5118;48.570;7.916;2023-04-30T02:22:48;11.80;99.90
10155;DHT22;5118;48.570;7.916;2023-04-30T02:25:17;11.70;99.90
10155;DHT22;5118;48.570;7.916;2023-04-30T02:27:45;11.70;99.90
10155;DHT22;5118;48.570;7.916;2023-04-30T02:30:14;11.60;99.90
10155;DHT22;5118;48.570;7.916;2023-04-30T02:32:43;11.40;99.90
10155;DHT22;5118;48.570;7.916;2023-04-30T02:35:12;11.40;99.90
10155;DHT22;5118;48.570;7.916;2023-04-30T02:37:41;11.20;99.90
10155;DHT22;5118;48.570;7.916;2023-04-30T02:40:10;11.10;99.90
10155;DHT22;5118;48.570;7.916;2023-04-30T02:42:38;11.00;99.90
10155;DHT22;5118;48.570;7.916;2023-04-30T02:45:07;10.90;99.90
10155;DHT22;5118;48.570;7.916;2023-04-30T02:47:36;10.90;99.90
10155;DHT22;5118;48.570;7.916;2023-04-30T02:50:07;10.80;99.90
10155;DHT22;5118;48.570;7.916;2023-04-30T02:52:35;10.70;99.90
10155;DHT22;5118;48.570;7.916;2023-04-30T02:55:04;10.60;99.90
10155;DHT22;5118;48.570;7.916;2023-04-30T02:57:33;10.50;99.90
10155;DHT22;5118;48.570;7.916;2023-04-30T03:00:01;10.40;99.90
10155;DHT22;5118;48.570;7.916;2023-04-30T03:02:31;10.40;99.90
10155;DHT22;5118;48.570;7.916;2023-04-30T03:04:59;10.40;99.90
10155;DHT22;5118;48.570;7.916;2023-04-30T03:07:29;10.30;99.90
10155;DHT22;5118;48.570;7.916;2023-04-30T03:09:58;10.30;99.90
10155;DHT22;5118;48.570;7.916;2023-04-30T03:12:27;10.20;99.90
10155;DHT22;5118;48.570;7.916;2023-04-30T03:14:55;10.20;99.90
10155;DHT22;5118;48.570;7.916;2023-04-30T03:17:23;10.20;99.90
10155;DHT22;5118;48.570;7.916;2023-04-30T03:19:52;10.20;99.90
10155;DHT22;5118;48.570;7.916;2023-04-30T03:22:20;10.20;99.90
10155;DHT22;5118;48.570;7.916;2023-04-30T03:24:51;10.30;99.90
10155;DHT22;5118;48.570;7.916;2023-04-30T03:27:19;10.40;99.90
10155;DHT22;5118;48.570;7.916;2023-04-30T03:29:48;10.50;99.90
10155;DHT22;5118;48.570;7.916;2023-04-30T03:32:17;10.60;99.90
10155;DHT22;5118;48.570;7.916;2023-04-30T03:34:46;10.70;99.90
10155;DHT22;5118;48.570;7.916;2023-04-30T03:37:15;10.80;99.90
10155;DHT22;5118;48.570;7.916;2023-04-30T03:39:43;10.90;99.90
10155;DHT22;5118;48.570;7.916;2023-04-30T03:42:13;10.90;99.90
10155;DHT22;5118;48.570;7.916;2023-04-30T03:44:42;11.00;99.90
10155;DHT22;5118;48.570;7.916;2023-04-30T03:47:10;11.10;99.90
10155;DHT22;5118;48.570;7.916;2023-04-30T03:49:39;11.10;99.90
10155;DHT22;5118;48.570;7.916;2023-04-30T03:52:07;11.20;99.90
10155;DHT22;5118;48.570;7.916;2023-04-30T03:54:36;11.20;99.90
10155;DHT22;5118;48.570;7.916;2023-04-30T03:57:04;11.20;99.90
10155;DHT22;5118;48.570;7.916;2023-04-30T03:59:35;11.30;99.90
10155;DHT22;5118;48.570;7.916;2023-04-30T04:02:04;11.30;99.90
10155;DHT22;5118;48.570;7.916;2023-04-30T04:04:33;11.40;99.90
10155;DHT22;5118;48.570;7.916;2023-04-30T04:07:01;11.40;99.90
10155;DHT22;5118;48.570;7.916;2023-04-30T04:09:30;11.40;99.90
10155;DHT22;5118;48.570;7.916;2023-04-30T04:11:58;11.40;99.90
10155;DHT22;5118;48.570;7.916;2023-04-30T04:14:27;11.40;99.90
10155;DHT22;5118;48.570;7.916;2023-04-30T04:16:57;11.40;99.90
10155;DHT22;5118;48.570;7.916;2023-04-30T04:19:26;11.40;99.90
10155;DHT22;5118;48.570;7.916;2023-04-30T04:21:55;11.40;99.90
10155;DHT22;5118;48.570;7.916;2023-04-30T04:24:24;11.40;99.90
10155;DHT22;5118;48.570;7.916;2023-04-30T04:26:52;11.50;99.90
10155;DHT22;5118;48.570;7.916;2023-04-30T04:29:21;11.50;99.90
10155;DHT22;5118;48.570;7.916;2023-04-30T04:31:49;11.50;99.90
10155;DHT22;5118;48.570;7.916;2023-04-30T04:34:19;11.50;99.90
10155;DHT22;5118;48.570;7.916;2023-04-30T04:36:47;11.50;99.90
10155;DHT22;5118;48.570;7.916;2023-04-30T04:39:16;11.50;99.90
10155;DHT22;5118;48.570;7.916;2023-04-30T04:41:45;11.60;99.90
10155;DHT22;5118;48.570;7.916;2023-04-30T04:44:13;11.60;99.90
10155;DHT22;5118;48.570;7.916;2023-04-30T04:46:44;11.60;99.90
10155;DHT22;5118;48.570;7.916;2023-04-30T04:49:13;11.70;99.90
10155;DHT22;5118;48.570;7.916;2023-04-30T04:51:43;11.70;99.90
10155;DHT22;5118;48.570;7.916;2023-04-30T04:54:11;11.80;99.90
10155;DHT22;5118;48.570;7.916;2023-04-30T04:56:39;11.90;99.90
10155;DHT22;5118;48.570;7.916;2023-04-30T04:59:07;11.90;99.90
10155;DHT22;5118;48.570;7.916;2023-04-30T05:01:36;11.90;99.90
10155;DHT22;5118;48.570;7.916;2023-04-30T05:04:04;12.00;99.90
10155;DHT22;5118;48.570;7.916;2023-04-30T05:06:35;12.10;99.90
10155;DHT22;5118;48.570;7.916;2023-04-30T05:09:07;12.10;99.90
10155;DHT22;5118;48.570;7.916;2023-04-30T05:11:36;12.10;99.90
10155;DHT22;5118;48.570;7.916;2023-04-30T05:14:07;12.20;99.90
10155;DHT22;5118;48.570;7.916;2023-04-30T05:16:35;12.20;99.90
10155;DHT22;5118;48.570;7.916;2023-04-30T05:19:04;12.30;99.90
10155;DHT22;5118;48.570;7.916;2023-04-30T05:21:33;12.30;99.90
10155;DHT22;5118;48.570;7.916;2023-04-30T05:24:02;12.40;99.90
10155;DHT22;5118;48.570;7.916;2023-04-30T05:26:31;12.50;99.90
10155;DHT22;5118;48.570;7.916;2023-04-30T05:29:00;12.50;99.90
10155;DHT22;5118;48.570;7.916;2023-04-30T05:31:28;12.60;99.90
10155;DHT22;5118;48.570;7.916;2023-04-30T05:33:58;12.60;99.90
10155;DHT22;5118;48.570;7.916;2023-04-30T05:36:26;12.70;99.90
10155;DHT22;5118;48.570;7.916;2023-04-30T05:38:55;12.70;99.90
10155;DHT22;5118;48.570;7.916;2023-04-30T05:41:23;12.80;99.90
10155;DHT22;5118;48.570;7.916;2023-04-30T05:43:53;12.90;99.90
10155;DHT22;5118;48.570;7.916;2023-04-30T05:46:21;12.90;99.90
10155;DHT22;5118;48.570;7.916;2023-04-30T05:48:50;13.00;99.90
10155;DHT22;5118;48.570;7.916;2023-04-30T05:51:18;13.10;99.90
10155;DHT22;5118;48.570;7.916;2023-04-30T05:53:46;13.20;99.90
10155;DHT22;5118;48.570;7.916;2023-04-30T05:56:14;13.30;99.90
10155;DHT22;5118;48.570;7.916;2023-04-30T05:58:43;13.40;99.90
10155;DHT22;5118;48.570;7.916;2023-04-30T06:01:13;13.40;99.90
10155;DHT22;5118;48.570;7.916;2023-04-30T06:03:41;13.50;99.90
10155;DHT22;5118;48.570;7.916;2023-04-30T06:06:09;13.60;99.90
10155;DHT22;5118;48.570;7.916;2023-04-30T06:08:38;13.70;99.90
10155;DHT22;5118;48.570;7.916;2023-04-30T06:11:08;13.80;99.90
10155;DHT22;5118;48.570;7.916;2023-04-30T06:13:36;14.00;99.90
10155;DHT22;5118;48.570;7.916;2023-04-30T06:16:05;14.10;99.90
10155;DHT22;5118;48.570;7.916;2023-04-30T06:18:35;14.20;99.90
10155;DHT22;5118;48.570;7.916;2023-04-30T06:21:03;14.30;99.90
10155;DHT22;5118;48.570;7.916;2023-04-30T06:23:31;14.40;99.90
10155;DHT22;5118;48.570;7.916;2023-04-30T06:26:00;14.40;99.90
10155;DHT22;5118;48.570;7.916;2023-04-30T06:28:28;14.50;99.90
10155;DHT22;5118;48.570;7.916;2023-04-30T06:30:56;14.40;99.90
10155;DHT22;5118;48.570;7.916;2023-04-30T06:33:24;14.50;99.90
10155;DHT22;5118;48.570;7.916;2023-04-30T06:35:54;14.50;99.90
10155;DHT22;5118;48.570;7.916;2023-04-30T06:38:23;14.50;99.90
10155;DHT22;5118;48.570;7.916;2023-04-30T06:40:51;14.50;99.90
10155;DHT22;5118;48.570;7.916;2023-04-30T06:43:20;14.50;99.90
10155;DHT22;5118;48.570;7.916;2023-04-30T06:45:48;14.50;99.90
10155;DHT22;5118;48.570;7.916;2023-04-30T06:48:17;14.50;99.90
10155;DHT22;5118;48.570;7.916;2023-04-30T06:50:45;14.50;99.90
10155;DHT22;5118;48.570;7.916;2023-04-30T06:53:15;14.60;99.90
10155;DHT22;5118;48.570;7.916;2023-04-30T06:55:45;14.60;99.90
10155;DHT22;5118;48.570;7.916;2023-04-30T06:58:14;14.60;99.90
10155;DHT22;5118;48.570;7.916;2023-04-30T07:00:42;14.60;99.90
10155;DHT22;5118;48.570;7.916;2023-04-30T07:03:10;14.70;99.90
10155;DHT22;5118;48.570;7.916;2023-04-30T07:05:39;14.70;99.90
10155;DHT22;5118;48.570;7.916;2023-04-30T07:08:07;14.70;99.90
10155;DHT22;5118;48.570;7.916;2023-04-30T07:10:37;14.80;99.90
10155;DHT22;5118;48.570;7.916;2023-04-30T07:13:05;14.80;99.90
10155;DHT22;5118;48.570;7.916;2023-04-30T07:15:34;14.80;99.90
10155;DHT22;5118;48.570;7.916;2023-04-30T07:18:03;14.90;99.90
10155;DHT22;5118;48.570;7.916;2023-04-30T07:20:31;15.00;99.90
10155;DHT22;5118;48.570;7.916;2023-04-30T07:23:00;15.10;99.90
10155;DHT22;5118;48.570;7.916;2023-04-30T07:25:28;15.10;99.90
10155;DHT22;5118;48.570;7.916;2023-04-30T07:27:57;15.20;99.90
10155;DHT22;5118;48.570;7.916;2023-04-30T07:30:26;15.20;99.90
10155;DHT22;5118;48.570;7.916;2023-04-30T07:32:55;15.20;99.90
10155;DHT22;5118;48.570;7.916;2023-04-30T07:35:23;15.30;99.90
10155;DHT22;5118;48.570;7.916;2023-04-30T07:37:51;15.40;99.90
10155;DHT22;5118;48.570;7.916;2023-04-30T07:40:20;15.50;99.90
10155;DHT22;5118;48.570;7.916;2023-04-30T07:43:03;15.60;99.90
10155;DHT22;5118;48.570;7.916;2023-04-30T07:45:31;15.70;99.90
10155;DHT22;5118;48.570;7.916;2023-04-30T07:48:00;15.80;99.90
10155;DHT22;5118;48.570;7.916;2023-04-30T07:50:30;15.80;99.90
10155;DHT22;5118;48.570;7.916;2023-04-30T07:53:00;15.90;99.90
10155;DHT22;5118;48.570;7.916;2023-04-30T07:55:29;16.00;99.90
10155;DHT22;5118;48.570;7.916;2023-04-30T07:57:57;16.00;99.90
10155;DHT22;5118;48.570;7.916;2023-04-30T08:00:27;16.10;99.90
10155;DHT22;5118;48.570;7.916;2023-04-30T08:02:57;16.20;99.90
10155;DHT22;5118;48.570;7.916;2023-04-30T08:05:26;16.20;99.90
10155;DHT22;5118;48.570;7.916;2023-04-30T08:07:56;16.30;99.90
10155;DHT22;5118;48.570;7.916;2023-04-30T08:10:24;16.40;99.90
10155;DHT22;5118;48.570;7.916;2023-04-30T08:12:53;16.50;99.90
10155;DHT22;5118;48.570;7.916;2023-04-30T08:15:21;16.70;99.90
10155;DHT22;5118;48.570;7.916;2023-04-30T08:17:51;16.80;99.90
10155;DHT22;5118;48.570;7.916;2023-04-30T08:20:19;16.90;99.90
10155;DHT22;5118;48.570;7.916;2023-04-30T08:22:49;17.00;99.90
10155;DHT22;5118;48.570;7.916;2023-04-30T08:25:18;17.10;99.90
10155;DHT22;5118;48.570;7.916;2023-04-30T08:27:46;17.20;99.90
10155;DHT22;5118;48.570;7.916;2023-04-30T08:30:15;17.30;99.90
10155;DHT22;5118;48.570;7.916;2023-04-30T08:32:43;17.30;99.90
10155;DHT22;5118;48.570;7.916;2023-04-30T08:35:13;17.40;99.90
10155;DHT22;5118;48.570;7.916;2023-04-30T08:37:42;17.40;99.90
10155;DHT22;5118;48.570;7.916;2023-04-30T08:40:11;17.40;99.90
10155;DHT22;5118;48.570;7.916;2023-04-30T08:42:45;17.40;99.90
10155;DHT22;5118;48.570;7.916;2023-04-30T08:45:14;17.50;99.90
10155;DHT22;5118;48.570;7.916;2023-04-30T08:47:43;17.70;99.90
10155;DHT22;5118;48.570;7.916;2023-04-30T08:50:13;17.70;99.90
10155;DHT22;5118;48.570;7.916;2023-04-30T08:52:42;17.80;99.90
10155;DHT22;5118;48.570;7.916;2023-04-30T08:55:11;18.00;99.90
10155;DHT22;5118;48.570;7.916;2023-04-30T08:57:39;18.10;99.90
10155;DHT22;5118;48.570;7.916;2023-04-30T09:00:09;18.30;99.90
10155;DHT22;5118;48.570;7.916;2023-04-30T09:02:39;18.30;99.90
10155;DHT22;5118;48.570;7.916;2023-04-30T09:05:10;18.50;99.90
10155;DHT22;5118;48.570;7.916;2023-04-30T09:07:40;18.50;99.90
10155;DHT22;5118;48.570;7.916;2023-04-30T09:10:21;18.60;99.90
10155;DHT22;5118;48.570;7.916;2023-04-30T09:12:59;18.80;99.90
10155;DHT22;5118;48.570;7.916;2023-04-30T09:15:29;18.90;99.90
10155;DHT22;5118;48.570;7.916;2023-04-30T09:18:08;19.00;99.90
10155;DHT22;5118;48.570;7.916;2023-04-30T09:20:37;19.10;99.90
10155;DHT22;5118;48.570;7.916;2023-04-30T09:23:22;19.10;99.90
10155;DHT22;5118;48.570;7.916;2023-04-30T09:25:50;19.30;99.90
10155;DHT22;5118;48.570;7.916;2023-04-30T09:28:19;19.40;99.90
10155;DHT22;5118;48.570;7.916;2023-04-30T09:30:51;19.50;99.90
10155;DHT22;5118;48.570;7.916;2023-04-30T09:33:20;19.50;99.90
10155;DHT22;5118;48.570;7.916;2023-04-30T09:35:48;19.40;99.90
10155;DHT22;5118;48.570;7.916;2023-04-30T09:38:28;19.50;99.90
10155;DHT22;5118;48.570;7.916;2023-04-30T09:40:58;19.50;99.90
10155;DHT22;5118;48.570;7.916;2023-04-30T09:43:27;19.60;99.90
10155;DHT22;5118;48.570;7.916;2023-04-30T09:45:58;19.70;99.90
10155;DHT22;5118;48.570;7.916;2023-04-30T09:48:27;19.90;99.90
10155;DHT22;5118;48.570;7.916;2023-04-30T09:50:55;20.10;99.90
10155;DHT22;5118;48.570;7.916;2023-04-30T09:53:27;20.40;99.90
10155;DHT22;5118;48.570;7.916;2023-04-30T09:55:57;20.60;99.90
10155;DHT22;5118;48.570;7.916;2023-04-30T09:58:27;21.00;99.90
10155;DHT22;5118;48.570;7.916;2023-04-30T10:00:58;21.20;99.90
10155;DHT22;5118;48.570;7.916;2023-04-30T10:03:28;21.50;99.90
10155;DHT22;5118;48.570;7.916;2023-04-30T10:05:59;21.80;99.90
10155;DHT22;5118;48.570;7.916;2023-04-30T10:08:31;22.10;99.90
10155;DHT22;5118;48.570;7.916;2023-04-30T10:11:02;22.40;99.30
10155;DHT22;5118;48.570;7.916;2023-04-30T10:13:37;22.60;99.20
10155;DHT22;5118;48.570;7.916;2023-04-30T10:16:12;22.80;97.40
10155;DHT22;5118;48.570;7.916;2023-04-30T10:18:45;22.80;97.00
10155;DHT22;5118;48.570;7.916;2023-04-30T10:21:16;22.80;96.70
10155;DHT22;5118;48.570;7.916;2023-04-30T10:23:47;22.80;96.50
10155;DHT22;5118;48.570;7.916;2023-04-30T10:26:16;22.80;96.20
10155;DHT22;5118;48.570;7.916;2023-04-30T10:28:47;22.80;95.50
10155;DHT22;5118;48.570;7.916;2023-04-30T10:31:17;22.80;94.50
10155;DHT22;5118;48.570;7.916;2023-04-30T10:33:53;22.80;93.80
10155;DHT22;5118;48.570;7.916;2023-04-30T10:36:28;22.80;91.50
10155;DHT22;5118;48.570;7.916;2023-04-30T10:39:01;22.80;92.10
10155;DHT22;5118;48.570;7.916;2023-04-30T10:41:30;22.80;92.80
10155;DHT22;5118;48.570;7.916;2023-04-30T10:44:00;22.80;92.70
10155;DHT22;5118;48.570;7.916;2023-04-30T10:46:33;22.90;93.30
10155;DHT22;5118;48.570;7.916;2023-04-30T10:49:02;23.00;92.90
10155;DHT22;5118;48.570;7.916;2023-04-30T10:51:49;23.20;93.10
10155;DHT22;5118;48.570;7.916;2023-04-30T10:54:25;23.40;92.00
10155;DHT22;5118;48.570;7.916;2023-04-30T10:56:58;23.60;92.30
10155;DHT22;5118;48.570;7.916;2023-04-30T10:59:36;23.70;91.60
10155;DHT22;5118;48.570;7.916;2023-04-30T11:02:04;24.00;91.70
10155;DHT22;5118;48.570;7.916;2023-04-30T11:04:33;24.50;91.30
10155;DHT22;5118;48.570;7.916;2023-04-30T11:07:09;25.30;90.60
10155;DHT22;5118;48.570;7.916;2023-04-30T11:09:41;26.30;90.50
10155;DHT22;5118;48.570;7.916;2023-04-30T11:12:12;27.20;86.20
10155;DHT22;5118;48.570;7.916;2023-04-30T11:14:41;28.10;83.80
10155;DHT22;5118;48.570;7.916;2023-04-30T11:17:11;28.80;78.00
10155;DHT22;5118;48.570;7.916;2023-04-30T11:19:47;29.00;73.80
10155;DHT22;5118;48.570;7.916;2023-04-30T11:22:17;28.90;69.60
10155;DHT22;5118;48.570;7.916;2023-04-30T11:24:51;28.60;67.50
10155;DHT22;5118;48.570;7.916;2023-04-30T11:27:20;28.70;63.70
10155;DHT22;5118;48.570;7.916;2023-04-30T11:29:50;29.10;69.20
10155;DHT22;5118;48.570;7.916;2023-04-30T11:32:20;29.40;65.50
10155;DHT22;5118;48.570;7.916;2023-04-30T11:34:49;29.40;62.40
10155;DHT22;5118;48.570;7.916;2023-04-30T11:37:19;29.20;61.90
10155;DHT22;5118;48.570;7.916;2023-04-30T11:39:47;28.90;60.80
10155;DHT22;5118;48.570;7.916;2023-04-30T11:42:19;28.80;61.10
10155;DHT22;5118;48.570;7.916;2023-04-30T11:44:47;29.00;60.30
10155;DHT22;5118;48.570;7.916;2023-04-30T11:47:15;29.20;60.00
10155;DHT22;5118;48.570;7.916;2023-04-30T11:49:44;29.50;60.60
10155;DHT22;5118;48.570;7.916;2023-04-30T11:52:12;29.60;58.10
10155;DHT22;5118;48.570;7.916;2023-04-30T11:54:40;29.50;55.40
10155;DHT22;5118;48.570;7.916;2023-04-30T11:57:09;29.10;54.70
10155;DHT22;5118;48.570;7.916;2023-04-30T11:59:41;28.80;55.20
10155;DHT22;5118;48.570;7.916;2023-04-30T12:02:14;28.70;56.20
10155;DHT22;5118;48.570;7.916;2023-04-30T12:04:43;28.60;54.80
10155;DHT22;5118;48.570;7.916;2023-04-30T12:07:13;28.40;53.40
10155;DHT22;5118;48.570;7.916;2023-04-30T12:09:51;27.90;53.10
10155;DHT22;5118;48.570;7.916;2023-04-30T12:12:26;27.50;53.90
10155;DHT22;5118;48.570;7.916;2023-04-30T12:14:56;27.40;55.00
10155;DHT22;5118;48.570;7.916;2023-04-30T12:17:32;27.30;54.50
10155;DHT22;5118;48.570;7.916;2023-04-30T12:20:01;27.20;53.70
10155;DHT22;5118;48.570;7.916;2023-04-30T12:22:31;27.10;54.10
10155;DHT22;5118;48.570;7.916;2023-04-30T12:25:00;26.90;54.20
10155;DHT22;5118;48.570;7.916;2023-04-30T12:27:33;26.70;54.50
10155;DHT22;5118;48.570;7.916;2023-04-30T12:30:05;26.60;55.20
10155;DHT22;5118;48.570;7.916;2023-04-30T12:32:40;26.40;56.00
10155;DHT22;5118;48.570;7.916;2023-04-30T12:35:13;26.20;55.10
10155;DHT22;5118;48.570;7.916;2023-04-30T12:37:43;25.90;54.50
10155;DHT22;5118;48.570;7.916;2023-04-30T12:40:12;25.70;56.30
10155;DHT22;5118;48.570;7.916;2023-04-30T12:42:42;25.60;56.60
10155;DHT22;5118;48.570;7.916;2023-04-30T12:45:15;25.80;56.70
10155;DHT22;5118;48.570;7.916;2023-04-30T12:48:04;26.10;56.50
10155;DHT22;5118;48.570;7.916;2023-04-30T12:50:33;26.80;56.40
10155;DHT22;5118;48.570;7.916;2023-04-30T12:53:02;27.50;56.00
10155;DHT22;5118;48.570;7.916;2023-04-30T12:55:32;28.20;55.70
10155;DHT22;5118;48.570;7.916;2023-04-30T12:58:08;28.90;54.40
10155;DHT22;5118;48.570;7.916;2023-04-30T13:00:47;29.20;50.60
10155;DHT22;5118;48.570;7.916;2023-04-30T13:03:18;29.00;50.90
10155;DHT22;5118;48.570;7.916;2023-04-30T13:05:50;29.00;51.30
10155;DHT22;5118;48.570;7.916;2023-04-30T13:08:20;28.90;51.10
10155;DHT22;5118;48.570;7.916;2023-04-30T13:10:49;28.80;50.60
10155;DHT22;5118;48.570;7.916;2023-04-30T13:13:19;28.60;50.20
10155;DHT22;5118;48.570;7.916;2023-04-30T13:15:49;28.40;49.50
10155;DHT22;5118;48.570;7.916;2023-04-30T13:18:17;28.10;48.90
10155;DHT22;5118;48.570;7.916;2023-04-30T13:20:48;27.70;49.20
10155;DHT22;5118;48.570;7.916;2023-04-30T13:23:17;27.20;50.00
10155;DHT22;5118;48.570;7.916;2023-04-30T13:25:46;26.80;50.70
10155;DHT22;5118;48.570;7.916;2023-04-30T13:28:15;26.60;51.50
10155;DHT22;5118;48.570;7.916;2023-04-30T13:30:43;26.70;52.30
10155;DHT22;5118;48.570;7.916;2023-04-30T13:33:13;27.10;52.10
10155;DHT22;5118;48.570;7.916;2023-04-30T13:35:41;27.60;52.00
10155;DHT22;5118;48.570;7.916;2023-04-30T13:38:10;28.30;50.90
10155;DHT22;5118;48.570;7.916;2023-04-30T13:40:38;28.90;49.70
10155;DHT22;5118;48.570;7.916;2023-04-30T13:43:07;29.40;49.10
10155;DHT22;5118;48.570;7.916;2023-04-30T13:45:35;29.60;47.30
10155;DHT22;5118;48.570;7.916;2023-04-30T13:48:04;29.60;46.80
10155;DHT22;5118;48.570;7.916;2023-04-30T13:50:34;29.50;46.50
10155;DHT22;5118;48.570;7.916;2023-04-30T13:53:03;29.30;46.10
10155;DHT22;5118;48.570;7.916;2023-04-30T13:55:31;29.20;47.30
10155;DHT22;5118;48.570;7.916;2023-04-30T13:58:00;29.50;47.70
10155;DHT22;5118;48.570;7.916;2023-04-30T14:00:28;30.00;46.60
10155;DHT22;5118;48.570;7.916;2023-04-30T14:02:57;30.40;46.50
10155;DHT22;5118;48.570;7.916;2023-04-30T14:05:26;30.80;46.20
10155;DHT22;5118;48.570;7.916;2023-04-30T14:07:55;30.70;44.70
10155;DHT22;5118;48.570;7.916;2023-04-30T14:10:24;30.50;43.80
10155;DHT22;5118;48.570;7.916;2023-04-30T14:12:53;30.10;43.60
10155;DHT22;5118;48.570;7.916;2023-04-30T14:15:22;29.80;44.00
10155;DHT22;5118;48.570;7.916;2023-04-30T14:17:50;29.80;44.10
10155;DHT22;5118;48.570;7.916;2023-04-30T14:20:20;30.20;43.40
10155;DHT22;5118;48.570;7.916;2023-04-30T14:22:50;30.40;43.20
10155;DHT22;5118;48.570;7.916;2023-04-30T14:25:21;30.60;42.90
10155;DHT22;5118;48.570;7.916;2023-04-30T14:27:50;30.60;42.70
10155;DHT22;5118;48.570;7.916;2023-04-30T14:30:18;30.40;43.30
10155;DHT22;5118;48.570;7.916;2023-04-30T14:32:48;30.30;42.10
10155;DHT22;5118;48.570;7.916;2023-04-30T14:35:17;30.00;42.60
10155;DHT22;5118;48.570;7.916;2023-04-30T14:37:46;29.70;42.80
10155;DHT22;5118;48.570;7.916;2023-04-30T14:40:15;29.50;42.30
10155;DHT22;5118;48.570;7.916;2023-04-30T14:42:47;29.30;42.30
10155;DHT22;5118;48.570;7.916;2023-04-30T14:45:17;29.30;43.00
10155;DHT22;5118;48.570;7.916;2023-04-30T14:47:47;29.50;43.30
10155;DHT22;5118;48.570;7.916;2023-04-30T14:50:16;29.80;44.10
10155;DHT22;5118;48.570;7.916;2023-04-30T14:52:46;30.00;42.90
10155;DHT22;5118;48.570;7.916;2023-04-30T14:55:15;30.10;42.00
10155;DHT22;5118;48.570;7.916;2023-04-30T14:57:44;30.00;41.20
10155;DHT22;5118;48.570;7.916;2023-04-30T15:00:15;29.90;41.20
10155;DHT22;5118;48.570;7.916;2023-04-30T15:02:45;29.60;41.00
10155;DHT22;5118;48.570;7.916;2023-04-30T15:05:15;29.10;41.20
10155;DHT22;5118;48.570;7.916;2023-04-30T15:07:44;28.50;41.70
10155;DHT22;5118;48.570;7.916;2023-04-30T15:10:14;27.80;42.50
10155;DHT22;5118;48.570;7.916;2023-04-30T15:12:43;27.20;43.20
10155;DHT22;5118;48.570;7.916;2023-04-30T15:15:14;26.70;43.70
10155;DHT22;5118;48.570;7.916;2023-04-30T15:17:45;26.40;44.30
10155;DHT22;5118;48.570;7.916;2023-04-30T15:20:14;26.20;44.80
10155;DHT22;5118;48.570;7.916;2023-04-30T15:22:43;26.20;44.80
10155;DHT22;5118;48.570;7.916;2023-04-30T15:25:12;26.10;45.20
10155;DHT22;5118;48.570;7.916;2023-04-30T15:27:41;26.10;45.50
10155;DHT22;5118;48.570;7.916;2023-04-30T15:30:10;26.00;45.20
10155;DHT22;5118;48.570;7.916;2023-04-30T15:32:41;25.60;45.30
10155;DHT22;5118;48.570;7.916;2023-04-30T15:35:11;25.30;45.80
10155;DHT22;5118;48.570;7.916;2023-04-30T15:37:39;25.10;46.40
10155;DHT22;5118;48.570;7.916;2023-04-30T15:40:08;24.90;46.60
10155;DHT22;5118;48.570;7.916;2023-04-30T15:42:41;24.80;47.10
10155;DHT22;5118;48.570;7.916;2023-04-30T15:45:09;24.80;47.70
10155;DHT22;5118;48.570;7.916;2023-04-30T15:47:38;24.80;48.00
10155;DHT22;5118;48.570;7.916;2023-04-30T15:50:09;24.80;47.80
10155;DHT22;5118;48.570;7.916;2023-04-30T15:52:38;24.60;48.00
10155;DHT22;5118;48.570;7.916;2023-04-30T15:55:08;24.50;48.00
10155;DHT22;5118;48.570;7.916;2023-04-30T15:57:36;24.40;48.10
10155;DHT22;5118;48.570;7.916;2023-04-30T16:00:06;24.50;48.40
10155;DHT22;5118;48.570;7.916;2023-04-30T16:02:40;24.50;48.30
10155;DHT22;5118;48.570;7.916;2023-04-30T16:05:11;24.30;48.00
10155;DHT22;5118;48.570;7.916;2023-04-30T16:07:39;24.20;48.50
10155;DHT22;5118;48.570;7.916;2023-04-30T16:10:10;24.10;48.80